Terminal Aerodrome Forecast
Issued by NWS

Home | Current Version | Previous Version | Text Only | Print | Product List | Glossary On
Versions: 1 2 3 4 5 6 7 8 9 10 11 12 13 14 15 16 17 18 19 20 21 22
000
FTUS43 KMPX 211350 AAA
TAFAXN
TAF AMD
KAXN 211350Z 2114/2212 32020G28KT P6SM VCSH BKN025 OVC040
      TEMPO 2114/2117 3/4SM -SHSN OVC013
     FM211700 32023G35KT P6SM OVC050
     FM220200 34014G20KT P6SM SCT100
     FM220600 32010KT P6SM SCT250=

USA.gov is the U.S. government's official web portal to all federal, state and local government web resources and services.